Terminal Aerodrome Forecast
Issued by NWS

Home | Current Version | Previous Version | Text Only | Print | Product List | Glossary On
Versions: 1 2 3 4 5 6 7 8 9 10 11 12 13 14
783
FTUS44 KTSA 282327
TAFRVS
TAF
KRVS 282327Z 2900/2924 07007KT P6SM SCT250
     FM291100 07011KT P6SM OVC050
     FM291500 09013KT P6SM VCTS OVC025CB
      TEMPO 2917/2921 5SM -TSRA OVC015CB=

USA.gov is the U.S. government's official web portal to all federal, state and local government web resources and services.